sensor_id;sensor_type;location;lat;lon;timestamp;P1;durP1;ratioP1;P2;durP2;ratioP2
26774;SDS011;14362;51.902;7.626;2024-01-30T00:03:22;13.82;;;10.65;;
26774;SDS011;14362;51.902;7.626;2024-01-30T00:07:24;13.88;;;10.82;;
26774;SDS011;14362;51.902;7.626;2024-01-30T00:11:26;15.85;;;11.68;;
26774;SDS011;14362;51.902;7.626;2024-01-30T00:15:28;16.25;;;10.88;;
26774;SDS011;14362;51.902;7.626;2024-01-30T00:19:30;15.85;;;10.82;;
26774;SDS011;14362;51.902;7.626;2024-01-30T00:23:32;15.05;;;11.20;;
26774;SDS011;14362;51.902;7.626;2024-01-30T00:27:34;14.48;;;10.23;;
26774;SDS011;14362;51.902;7.626;2024-01-30T00:31:36;15.25;;;10.27;;
26774;SDS011;14362;51.902;7.626;2024-01-30T00:35:37;14.98;;;11.02;;
26774;SDS011;14362;51.902;7.626;2024-01-30T00:39:39;15.20;;;10.85;;
26774;SDS011;14362;51.902;7.626;2024-01-30T00:43:41;15.82;;;12.27;;
26774;SDS011;14362;51.902;7.626;2024-01-30T00:47:43;14.98;;;11.50;;
26774;SDS011;14362;51.902;7.626;2024-01-30T00:51:45;18.08;;;11.93;;
26774;SDS011;14362;51.902;7.626;2024-01-30T00:55:46;17.83;;;12.75;;
26774;SDS011;14362;51.902;7.626;2024-01-30T00:59:49;19.15;;;11.38;;
26774;SDS011;14362;51.902;7.626;2024-01-30T01:03:51;17.70;;;12.70;;
26774;SDS011;14362;51.902;7.626;2024-01-30T01:07:52;16.08;;;11.70;;
26774;SDS011;14362;51.902;7.626;2024-01-30T01:11:53;19.10;;;13.07;;
26774;SDS011;14362;51.902;7.626;2024-01-30T01:15:56;18.98;;;12.32;;
26774;SDS011;14362;51.902;7.626;2024-01-30T01:19:58;17.42;;;11.82;;
26774;SDS011;14362;51.902;7.626;2024-01-30T01:23:59;20.13;;;12.23;;
26774;SDS011;14362;51.902;7.626;2024-01-30T01:28:00;19.60;;;13.50;;
26774;SDS011;14362;51.902;7.626;2024-01-30T01:32:03;16.52;;;12.48;;
26774;SDS011;14362;51.902;7.626;2024-01-30T01:36:05;19.27;;;12.68;;
26774;SDS011;14362;51.902;7.626;2024-01-30T01:40:07;20.15;;;13.65;;
26774;SDS011;14362;51.902;7.626;2024-01-30T01:44:09;18.77;;;12.82;;
26774;SDS011;14362;51.902;7.626;2024-01-30T01:48:12;19.17;;;13.45;;
26774;SDS011;14362;51.902;7.626;2024-01-30T01:52:14;16.45;;;12.95;;
26774;SDS011;14362;51.902;7.626;2024-01-30T01:56:16;21.45;;;12.63;;
26774;SDS011;14362;51.902;7.626;2024-01-30T02:00:17;19.00;;;12.85;;
26774;SDS011;14362;51.902;7.626;2024-01-30T02:04:22;17.85;;;13.43;;
26774;SDS011;14362;51.902;7.626;2024-01-30T02:08:23;20.08;;;12.38;;
26774;SDS011;14362;51.902;7.626;2024-01-30T02:12:25;20.27;;;14.07;;
26774;SDS011;14362;51.902;7.626;2024-01-30T02:16:26;17.75;;;12.63;;
26774;SDS011;14362;51.902;7.626;2024-01-30T02:20:30;21.83;;;13.32;;
26774;SDS011;14362;51.902;7.626;2024-01-30T02:24:33;16.95;;;13.18;;
26774;SDS011;14362;51.902;7.626;2024-01-30T02:28:35;18.63;;;12.65;;
26774;SDS011;14362;51.902;7.626;2024-01-30T02:32:36;17.98;;;13.60;;
26774;SDS011;14362;51.902;7.626;2024-01-30T02:36:38;19.63;;;14.18;;
26774;SDS011;14362;51.902;7.626;2024-01-30T02:40:40;18.13;;;13.20;;
26774;SDS011;14362;51.902;7.626;2024-01-30T02:44:42;21.58;;;13.63;;
26774;SDS011;14362;51.902;7.626;2024-01-30T02:48:43;17.58;;;13.57;;
26774;SDS011;14362;51.902;7.626;2024-01-30T02:52:45;19.58;;;13.93;;
26774;SDS011;14362;51.902;7.626;2024-01-30T02:56:48;16.10;;;12.98;;
26774;SDS011;14362;51.902;7.626;2024-01-30T03:00:49;19.92;;;12.65;;
26774;SDS011;14362;51.902;7.626;2024-01-30T03:04:50;20.05;;;13.65;;
26774;SDS011;14362;51.902;7.626;2024-01-30T03:08:52;15.68;;;12.80;;
26774;SDS011;14362;51.902;7.626;2024-01-30T03:12:55;17.70;;;12.93;;
26774;SDS011;14362;51.902;7.626;2024-01-30T03:16:56;16.13;;;12.45;;
26774;SDS011;14362;51.902;7.626;2024-01-30T03:20:57;18.90;;;12.82;;
26774;SDS011;14362;51.902;7.626;2024-01-30T03:24:59;17.50;;;12.68;;
26774;SDS011;14362;51.902;7.626;2024-01-30T03:29:02;19.00;;;12.98;;
26774;SDS011;14362;51.902;7.626;2024-01-30T03:33:03;16.48;;;12.13;;
26774;SDS011;14362;51.902;7.626;2024-01-30T03:37:05;19.08;;;12.65;;
26774;SDS011;14362;51.902;7.626;2024-01-30T03:41:07;18.48;;;13.95;;
26774;SDS011;14362;51.902;7.626;2024-01-30T03:45:10;20.50;;;13.98;;
26774;SDS011;14362;51.902;7.626;2024-01-30T03:49:12;15.77;;;11.77;;
26774;SDS011;14362;51.902;7.626;2024-01-30T03:53:13;20.20;;;12.82;;
26774;SDS011;14362;51.902;7.626;2024-01-30T03:57:14;20.00;;;13.15;;
26774;SDS011;14362;51.902;7.626;2024-01-30T04:01:17;17.80;;;12.00;;
26774;SDS011;14362;51.902;7.626;2024-01-30T04:05:19;22.05;;;13.30;;
26774;SDS011;14362;51.902;7.626;2024-01-30T04:09:20;16.33;;;12.55;;
26774;SDS011;14362;51.902;7.626;2024-01-30T04:13:22;17.58;;;11.93;;
26774;SDS011;14362;51.902;7.626;2024-01-30T04:17:24;14.43;;;12.00;;
26774;SDS011;14362;51.902;7.626;2024-01-30T04:21:26;18.40;;;12.30;;
26774;SDS011;14362;51.902;7.626;2024-01-30T04:25:27;19.25;;;12.55;;
26774;SDS011;14362;51.902;7.626;2024-01-30T04:29:29;16.70;;;12.32;;
26774;SDS011;14362;51.902;7.626;2024-01-30T04:33:31;17.20;;;13.43;;
26774;SDS011;14362;51.902;7.626;2024-01-30T04:37:33;16.15;;;11.55;;
26774;SDS011;14362;51.902;7.626;2024-01-30T04:41:34;19.92;;;12.98;;
26774;SDS011;14362;51.902;7.626;2024-01-30T04:45:36;19.38;;;12.68;;
26774;SDS011;14362;51.902;7.626;2024-01-30T04:49:39;16.48;;;12.23;;
26774;SDS011;14362;51.902;7.626;2024-01-30T04:53:40;16.00;;;12.10;;
26774;SDS011;14362;51.902;7.626;2024-01-30T04:57:42;19.95;;;13.48;;
26774;SDS011;14362;51.902;7.626;2024-01-30T05:01:43;18.92;;;12.45;;
26774;SDS011;14362;51.902;7.626;2024-01-30T05:05:46;17.65;;;12.13;;
26774;SDS011;14362;51.902;7.626;2024-01-30T05:09:47;18.38;;;13.02;;
26774;SDS011;14362;51.902;7.626;2024-01-30T05:13:49;19.55;;;12.80;;
26774;SDS011;14362;51.902;7.626;2024-01-30T05:17:50;16.17;;;12.70;;
26774;SDS011;14362;51.902;7.626;2024-01-30T05:21:53;16.67;;;12.88;;
26774;SDS011;14362;51.902;7.626;2024-01-30T05:25:54;16.02;;;12.40;;
26774;SDS011;14362;51.902;7.626;2024-01-30T05:29:56;17.55;;;12.93;;
26774;SDS011;14362;51.902;7.626;2024-01-30T05:33:57;21.52;;;12.18;;
26774;SDS011;14362;51.902;7.626;2024-01-30T05:38:00;19.02;;;12.90;;
26774;SDS011;14362;51.902;7.626;2024-01-30T05:42:02;18.23;;;11.98;;
26774;SDS011;14362;51.902;7.626;2024-01-30T05:46:03;17.17;;;12.63;;
26774;SDS011;14362;51.902;7.626;2024-01-30T05:50:08;17.65;;;12.70;;
26774;SDS011;14362;51.902;7.626;2024-01-30T05:54:11;16.42;;;12.27;;
26774;SDS011;14362;51.902;7.626;2024-01-30T05:58:12;16.88;;;13.05;;
26774;SDS011;14362;51.902;7.626;2024-01-30T06:02:13;17.83;;;12.30;;
26774;SDS011;14362;51.902;7.626;2024-01-30T06:06:15;20.58;;;14.55;;
26774;SDS011;14362;51.902;7.626;2024-01-30T06:10:18;19.55;;;12.93;;
26774;SDS011;14362;51.902;7.626;2024-01-30T06:14:19;18.30;;;13.18;;
26774;SDS011;14362;51.902;7.626;2024-01-30T06:18:21;16.77;;;12.65;;
26774;SDS011;14362;51.902;7.626;2024-01-30T06:22:22;15.65;;;11.90;;
26774;SDS011;14362;51.902;7.626;2024-01-30T06:26:25;18.63;;;13.18;;
26774;SDS011;14362;51.902;7.626;2024-01-30T06:30:26;16.75;;;11.80;;
26774;SDS011;14362;51.902;7.626;2024-01-30T06:34:29;16.75;;;12.25;;
26774;SDS011;14362;51.902;7.626;2024-01-30T06:38:30;17.13;;;12.00;;
26774;SDS011;14362;51.902;7.626;2024-01-30T06:42:33;15.27;;;11.68;;
26774;SDS011;14362;51.902;7.626;2024-01-30T06:46:34;15.48;;;12.55;;
26774;SDS011;14362;51.902;7.626;2024-01-30T06:50:37;14.90;;;11.55;;
26774;SDS011;14362;51.902;7.626;2024-01-30T06:54:38;17.20;;;12.35;;
26774;SDS011;14362;51.902;7.626;2024-01-30T06:58:41;16.30;;;12.48;;
26774;SDS011;14362;51.902;7.626;2024-01-30T07:02:42;16.10;;;12.50;;
26774;SDS011;14362;51.902;7.626;2024-01-30T07:06:44;19.83;;;13.60;;
26774;SDS011;14362;51.902;7.626;2024-01-30T07:10:45;13.27;;;11.85;;
26774;SDS011;14362;51.902;7.626;2024-01-30T07:14:48;16.23;;;11.13;;
26774;SDS011;14362;51.902;7.626;2024-01-30T07:18:50;18.85;;;12.00;;
26774;SDS011;14362;51.902;7.626;2024-01-30T07:22:51;15.77;;;11.88;;
26774;SDS011;14362;51.902;7.626;2024-01-30T07:26:53;15.43;;;11.48;;
26774;SDS011;14362;51.902;7.626;2024-01-30T07:30:56;16.10;;;11.27;;
26774;SDS011;14362;51.902;7.626;2024-01-30T07:34:57;13.82;;;10.75;;
26774;SDS011;14362;51.902;7.626;2024-01-30T07:38:58;21.38;;;11.77;;
26774;SDS011;14362;51.902;7.626;2024-01-30T07:43:00;15.63;;;11.32;;
26774;SDS011;14362;51.902;7.626;2024-01-30T07:47:04;14.32;;;11.25;;
26774;SDS011;14362;51.902;7.626;2024-01-30T07:51:07;13.32;;;10.80;;
26774;SDS011;14362;51.902;7.626;2024-01-30T07:55:08;14.60;;;11.20;;
26774;SDS011;14362;51.902;7.626;2024-01-30T07:59:10;15.63;;;11.48;;
26774;SDS011;14362;51.902;7.626;2024-01-30T08:03:13;15.77;;;11.40;;
26774;SDS011;14362;51.902;7.626;2024-01-30T08:07:16;14.23;;;11.05;;
26774;SDS011;14362;51.902;7.626;2024-01-30T08:11:19;14.60;;;11.27;;
26774;SDS011;14362;51.902;7.626;2024-01-30T08:15:25;18.50;;;11.85;;
26774;SDS011;14362;51.902;7.626;2024-01-30T08:19:31;15.90;;;12.02;;
26774;SDS011;14362;51.902;7.626;2024-01-30T08:23:32;16.15;;;11.88;;
26774;SDS011;14362;51.902;7.626;2024-01-30T08:27:34;14.20;;;11.77;;
26774;SDS011;14362;51.902;7.626;2024-01-30T08:31:38;15.90;;;11.50;;
26774;SDS011;14362;51.902;7.626;2024-01-30T08:35:41;12.98;;;10.18;;
26774;SDS011;14362;51.902;7.626;2024-01-30T08:39:42;14.43;;;10.23;;
26774;SDS011;14362;51.902;7.626;2024-01-30T08:43:44;13.30;;;9.85;;
26774;SDS011;14362;51.902;7.626;2024-01-30T08:47:45;13.52;;;10.00;;
26774;SDS011;14362;51.902;7.626;2024-01-30T08:51:48;11.38;;;9.15;;
26774;SDS011;14362;51.902;7.626;2024-01-30T08:55:50;12.43;;;9.27;;
26774;SDS011;14362;51.902;7.626;2024-01-30T08:59:51;13.45;;;10.07;;
26774;SDS011;14362;51.902;7.626;2024-01-30T09:03:53;14.02;;;9.50;;
26774;SDS011;14362;51.902;7.626;2024-01-30T09:07:56;10.90;;;8.90;;
26774;SDS011;14362;51.902;7.626;2024-01-30T09:11:57;21.92;;;12.02;;
26774;SDS011;14362;51.902;7.626;2024-01-30T09:16:02;13.50;;;9.27;;
26774;SDS011;14362;51.902;7.626;2024-01-30T09:20:04;11.60;;;8.80;;
26774;SDS011;14362;51.902;7.626;2024-01-30T09:24:08;16.13;;;9.60;;
26774;SDS011;14362;51.902;7.626;2024-01-30T09:28:09;13.45;;;10.65;;
26774;SDS011;14362;51.902;7.626;2024-01-30T09:32:10;11.15;;;8.70;;
26774;SDS011;14362;51.902;7.626;2024-01-30T09:36:12;12.10;;;9.15;;
26774;SDS011;14362;51.902;7.626;2024-01-30T09:40:16;11.85;;;8.70;;
26774;SDS011;14362;51.902;7.626;2024-01-30T09:44:19;13.75;;;8.57;;
26774;SDS011;14362;51.902;7.626;2024-01-30T09:48:21;11.93;;;9.85;;
26774;SDS011;14362;51.902;7.626;2024-01-30T09:52:23;13.68;;;9.60;;
26774;SDS011;14362;51.902;7.626;2024-01-30T09:56:26;13.80;;;8.90;;
26774;SDS011;14362;51.902;7.626;2024-01-30T10:00:27;10.50;;;7.85;;
26774;SDS011;14362;51.902;7.626;2024-01-30T10:04:29;11.88;;;8.40;;
26774;SDS011;14362;51.902;7.626;2024-01-30T10:08:30;11.00;;;8.80;;
26774;SDS011;14362;51.902;7.626;2024-01-30T10:12:33;11.77;;;8.13;;
26774;SDS011;14362;51.902;7.626;2024-01-30T10:16:34;14.57;;;9.23;;
26774;SDS011;14362;51.902;7.626;2024-01-30T10:20:36;10.68;;;7.95;;
26774;SDS011;14362;51.902;7.626;2024-01-30T10:24:38;10.35;;;7.95;;
26774;SDS011;14362;51.902;7.626;2024-01-30T10:28:40;9.68;;;7.78;;
26774;SDS011;14362;51.902;7.626;2024-01-30T10:32:42;10.95;;;8.38;;
26774;SDS011;14362;51.902;7.626;2024-01-30T10:36:44;12.07;;;8.65;;
26774;SDS011;14362;51.902;7.626;2024-01-30T10:40:51;12.00;;;8.50;;
26774;SDS011;14362;51.902;7.626;2024-01-30T10:45:00;10.10;;;8.00;;
26774;SDS011;14362;51.902;7.626;2024-01-30T10:49:08;13.80;;;8.80;;
26774;SDS011;14362;51.902;7.626;2024-01-30T10:53:10;10.57;;;8.55;;
26774;SDS011;14362;51.902;7.626;2024-01-30T10:57:13;11.55;;;8.10;;
26774;SDS011;14362;51.902;7.626;2024-01-30T11:01:18;12.45;;;8.32;;
26774;SDS011;14362;51.902;7.626;2024-01-30T11:05:26;13.23;;;9.00;;
26774;SDS011;14362;51.902;7.626;2024-01-30T11:09:29;11.75;;;8.45;;
26774;SDS011;14362;51.902;7.626;2024-01-30T11:13:30;11.18;;;8.50;;
26774;SDS011;14362;51.902;7.626;2024-01-30T11:17:43;11.15;;;8.50;;
26774;SDS011;14362;51.902;7.626;2024-01-30T11:21:46;11.60;;;8.23;;
26774;SDS011;14362;51.902;7.626;2024-01-30T11:25:47;12.57;;;8.57;;
26774;SDS011;14362;51.902;7.626;2024-01-30T11:29:52;9.93;;;8.18;;
26774;SDS011;14362;51.902;7.626;2024-01-30T11:33:55;10.55;;;8.30;;
26774;SDS011;14362;51.902;7.626;2024-01-30T11:37:57;9.95;;;8.50;;
26774;SDS011;14362;51.902;7.626;2024-01-30T11:42:00;10.77;;;7.88;;
26774;SDS011;14362;51.902;7.626;2024-01-30T11:46:03;13.73;;;7.30;;
26774;SDS011;14362;51.902;7.626;2024-01-30T11:50:08;11.40;;;8.35;;
26774;SDS011;14362;51.902;7.626;2024-01-30T11:54:10;10.85;;;7.72;;
26774;SDS011;14362;51.902;7.626;2024-01-30T11:58:12;11.52;;;7.15;;
26774;SDS011;14362;51.902;7.626;2024-01-30T12:02:15;11.48;;;6.88;;
26774;SDS011;14362;51.902;7.626;2024-01-30T12:06:18;11.05;;;7.43;;
26774;SDS011;14362;51.902;7.626;2024-01-30T12:10:20;8.00;;;6.45;;
26774;SDS011;14362;51.902;7.626;2024-01-30T12:14:22;13.13;;;7.72;;
26774;SDS011;14362;51.902;7.626;2024-01-30T12:18:25;10.20;;;6.95;;
26774;SDS011;14362;51.902;7.626;2024-01-30T12:22:28;10.38;;;7.60;;
26774;SDS011;14362;51.902;7.626;2024-01-30T12:26:29;13.27;;;7.20;;
26774;SDS011;14362;51.902;7.626;2024-01-30T12:30:31;12.15;;;7.93;;
26774;SDS011;14362;51.902;7.626;2024-01-30T12:34:32;13.05;;;7.90;;
26774;SDS011;14362;51.902;7.626;2024-01-30T12:38:35;10.45;;;7.10;;
26774;SDS011;14362;51.902;7.626;2024-01-30T12:42:37;14.50;;;8.40;;
26774;SDS011;14362;51.902;7.626;2024-01-30T12:46:38;14.55;;;8.80;;
26774;SDS011;14362;51.902;7.626;2024-01-30T12:50:40;12.48;;;8.20;;
26774;SDS011;14362;51.902;7.626;2024-01-30T12:54:43;11.88;;;8.30;;
26774;SDS011;14362;51.902;7.626;2024-01-30T12:58:44;10.68;;;7.50;;
26774;SDS011;14362;51.902;7.626;2024-01-30T13:02:47;14.18;;;7.78;;
26774;SDS011;14362;51.902;7.626;2024-01-30T13:06:48;13.10;;;8.07;;
26774;SDS011;14362;51.902;7.626;2024-01-30T13:10:51;12.85;;;8.68;;
26774;SDS011;14362;51.902;7.626;2024-01-30T13:14:52;14.45;;;7.93;;
26774;SDS011;14362;51.902;7.626;2024-01-30T13:18:54;14.05;;;8.35;;
26774;SDS011;14362;51.902;7.626;2024-01-30T13:22:55;10.25;;;7.88;;
26774;SDS011;14362;51.902;7.626;2024-01-30T13:26:58;12.45;;;7.85;;
26774;SDS011;14362;51.902;7.626;2024-01-30T13:31:00;14.32;;;9.20;;
26774;SDS011;14362;51.902;7.626;2024-01-30T13:35:01;10.88;;;8.18;;
26774;SDS011;14362;51.902;7.626;2024-01-30T13:39:03;12.20;;;8.32;;
26774;SDS011;14362;51.902;7.626;2024-01-30T13:43:10;11.90;;;7.38;;
26774;SDS011;14362;51.902;7.626;2024-01-30T13:47:12;12.38;;;8.20;;
26774;SDS011;14362;51.902;7.626;2024-01-30T13:51:13;17.30;;;8.60;;
26774;SDS011;14362;51.902;7.626;2024-01-30T13:55:17;12.88;;;8.30;;
26774;SDS011;14362;51.902;7.626;2024-01-30T13:59:19;12.45;;;8.35;;
26774;SDS011;14362;51.902;7.626;2024-01-30T14:03:24;11.75;;;7.22;;
26774;SDS011;14362;51.902;7.626;2024-01-30T14:07:25;10.93;;;8.23;;
26774;SDS011;14362;51.902;7.626;2024-01-30T14:11:27;11.13;;;8.05;;
26774;SDS011;14362;51.902;7.626;2024-01-30T14:15:30;10.48;;;8.07;;
26774;SDS011;14362;51.902;7.626;2024-01-30T14:19:31;11.50;;;8.15;;
26774;SDS011;14362;51.902;7.626;2024-01-30T14:23:32;13.38;;;8.57;;
26774;SDS011;14362;51.902;7.626;2024-01-30T14:27:34;12.32;;;8.38;;
26774;SDS011;14362;51.902;7.626;2024-01-30T14:31:37;11.50;;;8.50;;
26774;SDS011;14362;51.902;7.626;2024-01-30T14:35:39;10.90;;;8.23;;
26774;SDS011;14362;51.902;7.626;2024-01-30T14:39:40;13.07;;;9.10;;
26774;SDS011;14362;51.902;7.626;2024-01-30T14:43:42;11.73;;;9.05;;
26774;SDS011;14362;51.902;7.626;2024-01-30T14:47:44;13.45;;;9.23;;
26774;SDS011;14362;51.902;7.626;2024-01-30T14:51:46;11.60;;;8.70;;
26774;SDS011;14362;51.902;7.626;2024-01-30T14:55:50;10.45;;;8.50;;
26774;SDS011;14362;51.902;7.626;2024-01-30T14:59:51;13.30;;;8.63;;
26774;SDS011;14362;51.902;7.626;2024-01-30T15:03:54;11.27;;;8.30;;
26774;SDS011;14362;51.902;7.626;2024-01-30T15:07:56;13.18;;;8.77;;
26774;SDS011;14362;51.902;7.626;2024-01-30T15:11:57;12.20;;;8.65;;
26774;SDS011;14362;51.902;7.626;2024-01-30T15:15:59;14.90;;;8.93;;
26774;SDS011;14362;51.902;7.626;2024-01-30T15:20:05;11.80;;;9.73;;
26774;SDS011;14362;51.902;7.626;2024-01-30T15:24:07;14.95;;;10.20;;
26774;SDS011;14362;51.902;7.626;2024-01-30T15:28:08;12.98;;;10.27;;
26774;SDS011;14362;51.902;7.626;2024-01-30T15:32:10;14.35;;;9.93;;
26774;SDS011;14362;51.902;7.626;2024-01-30T15:36:13;13.52;;;8.38;;
26774;SDS011;14362;51.902;7.626;2024-01-30T15:40:15;10.40;;;8.23;;
26774;SDS011;14362;51.902;7.626;2024-01-30T15:44:16;10.70;;;8.00;;
26774;SDS011;14362;51.902;7.626;2024-01-30T15:48:18;12.18;;;7.88;;
26774;SDS011;14362;51.902;7.626;2024-01-30T15:52:20;11.88;;;7.13;;
26774;SDS011;14362;51.902;7.626;2024-01-30T15:56:22;8.57;;;5.80;;
26774;SDS011;14362;51.902;7.626;2024-01-30T16:00:24;8.48;;;4.80;;
26774;SDS011;14362;51.902;7.626;2024-01-30T16:04:26;6.90;;;4.35;;
26774;SDS011;14362;51.902;7.626;2024-01-30T16:08:29;7.70;;;4.13;;
26774;SDS011;14362;51.902;7.626;2024-01-30T16:12:30;5.00;;;3.85;;
26774;SDS011;14362;51.902;7.626;2024-01-30T16:16:32;5.10;;;3.67;;
26774;SDS011;14362;51.902;7.626;2024-01-30T16:20:33;9.75;;;3.83;;
26774;SDS011;14362;51.902;7.626;2024-01-30T16:24:36;8.48;;;3.65;;
26774;SDS011;14362;51.902;7.626;2024-01-30T16:28:39;7.57;;;3.08;;
26774;SDS011;14362;51.902;7.626;2024-01-30T16:32:40;5.88;;;2.72;;
26774;SDS011;14362;51.902;7.626;2024-01-30T16:36:42;4.47;;;2.33;;
26774;SDS011;14362;51.902;7.626;2024-01-30T16:40:45;7.18;;;3.20;;
26774;SDS011;14362;51.902;7.626;2024-01-30T16:44:47;3.47;;;2.72;;
26774;SDS011;14362;51.902;7.626;2024-01-30T16:48:48;4.88;;;2.13;;
26774;SDS011;14362;51.902;7.626;2024-01-30T16:52:50;4.68;;;2.50;;
26774;SDS011;14362;51.902;7.626;2024-01-30T16:56:53;4.22;;;2.33;;
26774;SDS011;14362;51.902;7.626;2024-01-30T17:00:54;3.90;;;2.28;;
26774;SDS011;14362;51.902;7.626;2024-01-30T17:04:56;3.55;;;2.08;;
26774;SDS011;14362;51.902;7.626;2024-01-30T17:08:58;3.15;;;2.30;;
26774;SDS011;14362;51.902;7.626;2024-01-30T17:13:01;2.17;;;1.83;;
26774;SDS011;14362;51.902;7.626;2024-01-30T17:17:03;3.58;;;2.15;;
26774;SDS011;14362;51.902;7.626;2024-01-30T17:21:04;3.60;;;1.85;;
26774;SDS011;14362;51.902;7.626;2024-01-30T17:25:06;6.53;;;2.45;;
26774;SDS011;14362;51.902;7.626;2024-01-30T17:29:09;4.38;;;1.98;;
26774;SDS011;14362;51.902;7.626;2024-01-30T17:33:11;3.92;;;2.33;;
26774;SDS011;14362;51.902;7.626;2024-01-30T17:37:12;5.80;;;2.80;;
26774;SDS011;14362;51.902;7.626;2024-01-30T17:41:14;4.97;;;2.67;;
26774;SDS011;14362;51.902;7.626;2024-01-30T17:45:16;5.22;;;3.15;;
26774;SDS011;14362;51.902;7.626;2024-01-30T17:49:18;3.85;;;3.05;;
26774;SDS011;14362;51.902;7.626;2024-01-30T17:53:19;8.23;;;3.88;;
26774;SDS011;14362;51.902;7.626;2024-01-30T17:57:21;5.63;;;3.53;;
26774;SDS011;14362;51.902;7.626;2024-01-30T18:01:23;6.03;;;3.42;;
26774;SDS011;14362;51.902;7.626;2024-01-30T18:05:25;4.65;;;3.75;;
26774;SDS011;14362;51.902;7.626;2024-01-30T18:09:26;5.45;;;4.00;;
26774;SDS011;14362;51.902;7.626;2024-01-30T18:13:28;5.38;;;4.40;;
26774;SDS011;14362;51.902;7.626;2024-01-30T18:17:31;6.45;;;5.40;;
26774;SDS011;14362;51.902;7.626;2024-01-30T18:21:34;8.68;;;6.38;;
26774;SDS011;14362;51.902;7.626;2024-01-30T18:25:35;7.45;;;5.55;;
26774;SDS011;14362;51.902;7.626;2024-01-30T18:29:37;8.75;;;6.05;;
26774;SDS011;14362;51.902;7.626;2024-01-30T18:33:41;9.43;;;5.68;;
26774;SDS011;14362;51.902;7.626;2024-01-30T18:37:42;8.30;;;5.95;;
26774;SDS011;14362;51.902;7.626;2024-01-30T18:41:43;11.35;;;6.07;;
26774;SDS011;14362;51.902;7.626;2024-01-30T18:45:50;7.55;;;6.15;;
26774;SDS011;14362;51.902;7.626;2024-01-30T18:49:53;8.85;;;6.47;;
26774;SDS011;14362;51.902;7.626;2024-01-30T18:53:55;9.93;;;6.45;;
26774;SDS011;14362;51.902;7.626;2024-01-30T18:57:56;10.73;;;6.88;;
26774;SDS011;14362;51.902;7.626;2024-01-30T19:01:58;11.52;;;6.70;;
26774;SDS011;14362;51.902;7.626;2024-01-30T19:06:01;10.35;;;6.72;;
26774;SDS011;14362;51.902;7.626;2024-01-30T19:10:02;10.02;;;6.78;;
26774;SDS011;14362;51.902;7.626;2024-01-30T19:14:05;10.43;;;6.47;;
26774;SDS011;14362;51.902;7.626;2024-01-30T19:18:06;9.15;;;6.00;;
26774;SDS011;14362;51.902;7.626;2024-01-30T19:22:12;8.38;;;6.07;;
26774;SDS011;14362;51.902;7.626;2024-01-30T19:26:13;9.38;;;6.57;;
26774;SDS011;14362;51.902;7.626;2024-01-30T19:30:15;8.48;;;5.93;;
26774;SDS011;14362;51.902;7.626;2024-01-30T19:34:16;9.57;;;6.72;;
26774;SDS011;14362;51.902;7.626;2024-01-30T19:38:19;11.48;;;7.00;;
26774;SDS011;14362;51.902;7.626;2024-01-30T19:42:21;14.40;;;8.30;;
26774;SDS011;14362;51.902;7.626;2024-01-30T19:46:22;10.65;;;7.75;;
26774;SDS011;14362;51.902;7.626;2024-01-30T19:50:24;11.52;;;8.45;;
26774;SDS011;14362;51.902;7.626;2024-01-30T19:54:26;12.40;;;8.43;;
26774;SDS011;14362;51.902;7.626;2024-01-30T19:58:29;12.32;;;8.48;;
26774;SDS011;14362;51.902;7.626;2024-01-30T20:02:30;13.90;;;9.45;;
26774;SDS011;14362;51.902;7.626;2024-01-30T20:06:32;12.75;;;9.35;;
26774;SDS011;14362;51.902;7.626;2024-01-30T20:10:35;14.40;;;9.02;;
26774;SDS011;14362;51.902;7.626;2024-01-30T20:14:36;12.80;;;9.00;;
26774;SDS011;14362;51.902;7.626;2024-01-30T20:18:38;14.13;;;9.27;;
26774;SDS011;14362;51.902;7.626;2024-01-30T20:22:39;14.05;;;9.82;;
26774;SDS011;14362;51.902;7.626;2024-01-30T20:26:42;14.45;;;9.15;;
26774;SDS011;14362;51.902;7.626;2024-01-30T20:30:43;15.57;;;10.43;;
26774;SDS011;14362;51.902;7.626;2024-01-30T20:34:46;15.52;;;9.93;;
26774;SDS011;14362;51.902;7.626;2024-01-30T20:38:47;16.35;;;10.63;;
26774;SDS011;14362;51.902;7.626;2024-01-30T20:42:50;18.45;;;11.52;;
26774;SDS011;14362;51.902;7.626;2024-01-30T20:46:52;15.75;;;11.10;;
26774;SDS011;14362;51.902;7.626;2024-01-30T20:50:54;18.58;;;11.75;;
26774;SDS011;14362;51.902;7.626;2024-01-30T20:54:55;18.08;;;11.98;;
26774;SDS011;14362;51.902;7.626;2024-01-30T20:58:58;18.55;;;12.55;;
26774;SDS011;14362;51.902;7.626;2024-01-30T21:02:59;18.83;;;12.07;;
26774;SDS011;14362;51.902;7.626;2024-01-30T21:07:01;20.95;;;12.75;;
26774;SDS011;14362;51.902;7.626;2024-01-30T21:11:03;21.50;;;12.27;;
26774;SDS011;14362;51.902;7.626;2024-01-30T21:15:08;18.55;;;12.60;;
26774;SDS011;14362;51.902;7.626;2024-01-30T21:19:10;19.42;;;12.52;;
26774;SDS011;14362;51.902;7.626;2024-01-30T21:23:12;20.13;;;13.38;;
26774;SDS011;14362;51.902;7.626;2024-01-30T21:27:14;20.77;;;12.57;;
26774;SDS011;14362;51.902;7.626;2024-01-30T21:31:17;19.23;;;12.82;;
26774;SDS011;14362;51.902;7.626;2024-01-30T21:35:18;18.27;;;12.10;;
26774;SDS011;14362;51.902;7.626;2024-01-30T21:39:20;18.88;;;11.88;;
26774;SDS011;14362;51.902;7.626;2024-01-30T21:43:21;20.65;;;12.70;;
26774;SDS011;14362;51.902;7.626;2024-01-30T21:47:24;16.27;;;10.70;;
26774;SDS011;14362;51.902;7.626;2024-01-30T21:51:26;16.00;;;10.73;;
26774;SDS011;14362;51.902;7.626;2024-01-30T21:55:27;18.88;;;11.02;;
26774;SDS011;14362;51.902;7.626;2024-01-30T21:59:29;15.07;;;9.57;;
26774;SDS011;14362;51.902;7.626;2024-01-30T22:03:32;17.65;;;9.20;;
26774;SDS011;14362;51.902;7.626;2024-01-30T22:07:34;13.50;;;7.85;;
26774;SDS011;14362;51.902;7.626;2024-01-30T22:11:35;14.77;;;7.80;;
26774;SDS011;14362;51.902;7.626;2024-01-30T22:15:37;12.68;;;7.25;;
26774;SDS011;14362;51.902;7.626;2024-01-30T22:19:41;10.85;;;6.28;;
26774;SDS011;14362;51.902;7.626;2024-01-30T22:23:42;11.48;;;5.95;;
26774;SDS011;14362;51.902;7.626;2024-01-30T22:27:44;7.95;;;5.45;;
26774;SDS011;14362;51.902;7.626;2024-01-30T22:31:45;13.48;;;6.03;;
26774;SDS011;14362;51.902;7.626;2024-01-30T22:35:48;10.68;;;6.72;;
26774;SDS011;14362;51.902;7.626;2024-01-30T22:39:50;7.15;;;5.30;;
26774;SDS011;14362;51.902;7.626;2024-01-30T22:43:51;10.00;;;6.63;;
26774;SDS011;14362;51.902;7.626;2024-01-30T22:47:53;9.57;;;5.90;;
26774;SDS011;14362;51.902;7.626;2024-01-30T22:51:56;10.13;;;6.93;;
26774;SDS011;14362;51.902;7.626;2024-01-30T22:55:58;12.35;;;7.43;;
26774;SDS011;14362;51.902;7.626;2024-01-30T22:59:59;11.82;;;6.22;;
26774;SDS011;14362;51.902;7.626;2024-01-30T23:04:00;12.50;;;7.50;;
26774;SDS011;14362;51.902;7.626;2024-01-30T23:08:04;13.48;;;7.78;;
26774;SDS011;14362;51.902;7.626;2024-01-30T23:12:06;12.07;;;7.03;;
26774;SDS011;14362;51.902;7.626;2024-01-30T23:16:08;14.40;;;7.63;;
26774;SDS011;14362;51.902;7.626;2024-01-30T23:20:10;13.10;;;6.65;;
26774;SDS011;14362;51.902;7.626;2024-01-30T23:24:15;12.23;;;6.68;;
26774;SDS011;14362;51.902;7.626;2024-01-30T23:28:16;13.00;;;7.07;;
26774;SDS011;14362;51.902;7.626;2024-01-30T23:32:18;11.32;;;6.88;;
26774;SDS011;14362;51.902;7.626;2024-01-30T23:36:20;10.75;;;6.47;;
26774;SDS011;14362;51.902;7.626;2024-01-30T23:40:23;10.25;;;5.88;;
26774;SDS011;14362;51.902;7.626;2024-01-30T23:44:25;12.35;;;6.32;;
26774;SDS011;14362;51.902;7.626;2024-01-30T23:48:26;8.45;;;5.25;;
26774;SDS011;14362;51.902;7.626;2024-01-30T23:52:28;9.63;;;4.60;;